createdAt,value
2019-02-27T00:00:16.149Z,42.00
2019-02-27T00:17:34.840Z,42.20
2019-02-27T00:20:06.085Z,40.40
2019-02-27T00:22:34.515Z,39.60
2019-02-27T00:25:04.006Z,38.60
2019-02-27T00:27:32.614Z,39.20
2019-02-27T00:30:04.640Z,39.40
2019-02-27T00:32:31.273Z,39.20
2019-02-27T00:34:59.778Z,39.30
2019-02-27T00:37:28.474Z,39.40
2019-02-27T00:39:57.209Z,39.30
2019-02-27T00:42:33.269Z,39.00
2019-02-27T00:44:55.928Z,39.10
2019-02-27T00:47:24.408Z,39.30
2019-02-27T00:49:52.968Z,39.40
2019-02-27T00:52:21.455Z,38.70
2019-02-27T00:54:49.916Z,38.10
2019-02-27T00:57:20.839Z,38.20
2019-02-27T00:59:48.701Z,38.20
2019-02-27T01:02:20.009Z,38.20
2019-02-27T01:04:47.479Z,38.30
2019-02-27T01:07:20.187Z,38.50
2019-02-27T01:09:47.140Z,38.70
2019-02-27T01:12:15.705Z,38.70
2019-02-27T01:14:44.191Z,39.10
2019-02-27T01:17:12.660Z,39.30
2019-02-27T01:19:42.885Z,39.50
2019-02-27T01:22:11.416Z,39.60
2019-02-27T01:24:39.912Z,39.70
2019-02-27T01:27:10.189Z,39.80
2019-02-27T01:29:38.764Z,39.90
2019-02-27T01:32:07.231Z,39.90
2019-02-27T01:34:35.730Z,40.00
2019-02-27T01:37:04.191Z,40.00
2019-02-27T01:39:32.708Z,40.10
2019-02-27T01:42:01.181Z,40.20
2019-02-27T01:44:29.684Z,40.40
2019-02-27T01:47:01.836Z,40.80
2019-02-27T01:49:28.312Z,41.20
2019-02-27T01:51:59.186Z,41.60
2019-02-27T01:54:26.960Z,41.60
2019-02-27T01:56:55.431Z,41.70
2019-02-27T01:59:23.902Z,41.80
2019-02-27T02:01:52.459Z,41.80
2019-02-27T02:04:20.986Z,41.70
2019-02-27T02:06:49.477Z,41.80
2019-02-27T02:09:33.274Z,41.80
2019-02-27T02:12:08.681Z,41.80
2019-02-27T02:14:54.124Z,41.80
2019-02-27T02:17:49.037Z,41.80
2019-02-27T02:20:44.729Z,41.80
2019-02-27T02:23:36.402Z,41.70
2019-02-27T02:26:08.146Z,41.60
2019-02-27T02:29:04.903Z,41.80
2019-02-27T02:31:40.758Z,41.80
2019-02-27T02:34:24.791Z,42.00
2019-02-27T02:37:09.763Z,42.10
2019-02-27T02:39:56.460Z,42.30
2019-02-27T02:42:28.245Z,42.30
2019-02-27T02:45:32.762Z,42.50
2019-02-27T02:48:20.814Z,42.70
2019-02-27T02:50:54.309Z,42.80
2019-02-27T02:53:28.623Z,41.00
2019-02-27T02:56:00.348Z,40.10
2019-02-27T02:58:47.169Z,40.30
2019-02-27T03:01:19.755Z,40.00
2019-02-27T03:04:00.389Z,40.00
2019-02-27T03:06:44.125Z,39.90
2019-02-27T03:09:21.385Z,39.90
2019-02-27T03:11:58.700Z,40.00
2019-02-27T03:14:53.089Z,39.90
2019-02-27T03:17:28.818Z,40.00
2019-02-27T03:20:06.681Z,39.90
2019-02-27T03:22:41.853Z,40.00
2019-02-27T03:25:40.705Z,40.40
2019-02-27T03:28:40.992Z,40.60
2019-02-27T03:31:22.267Z,40.70
2019-02-27T03:34:15.150Z,40.70
2019-02-27T03:37:13.507Z,40.80
2019-02-27T03:39:59.973Z,40.90
2019-02-27T03:42:49.194Z,41.10
2019-02-27T03:45:30.992Z,41.20
2019-02-27T03:48:08.751Z,41.80
2019-02-27T03:50:50.752Z,40.60
2019-02-27T03:53:39.382Z,40.30
2019-02-27T03:56:30.835Z,40.20
2019-02-27T03:59:17.329Z,40.20
2019-02-27T04:02:05.813Z,40.10
2019-02-27T04:05:05.181Z,40.10
2019-02-27T04:08:08.982Z,40.30
2019-02-27T04:10:37.718Z,40.30
2019-02-27T04:13:06.228Z,40.30
2019-02-27T04:15:34.794Z,40.20
2019-02-27T04:18:02.409Z,40.90
2019-02-27T04:20:30.905Z,40.20
2019-02-27T04:22:59.462Z,40.20
2019-02-27T04:25:31.103Z,40.20
2019-02-27T04:27:58.101Z,40.10
2019-02-27T04:30:26.626Z,40.20
2019-02-27T04:32:55.072Z,40.20
2019-02-27T04:35:24.001Z,40.20
2019-02-27T04:37:54.293Z,40.10
2019-02-27T04:40:22.749Z,40.30
2019-02-27T04:42:51.260Z,40.20
2019-02-27T04:45:19.724Z,40.30
2019-02-27T04:47:48.258Z,40.30
2019-02-27T04:50:16.790Z,40.30
2019-02-27T04:52:45.387Z,40.30
2019-02-27T04:55:15.759Z,40.30
2019-02-27T04:57:44.064Z,40.30
2019-02-27T05:00:12.606Z,40.30
2019-02-27T05:02:41.102Z,40.30
2019-02-27T05:05:09.657Z,40.30
2019-02-27T05:07:38.285Z,40.30
2019-02-27T05:10:09.143Z,40.30
2019-02-27T05:12:37.628Z,40.30
2019-02-27T05:15:08.397Z,40.30
2019-02-27T05:17:36.937Z,40.30
2019-02-27T05:20:11.466Z,40.40
2019-02-27T05:22:38.208Z,40.40
2019-02-27T05:25:06.782Z,40.40
2019-02-27T05:27:35.273Z,40.40
2019-02-27T05:30:04.976Z,40.40
2019-02-27T05:32:33.428Z,40.40
2019-02-27T05:35:01.912Z,40.50
2019-02-27T05:37:30.393Z,40.40
2019-02-27T05:39:58.960Z,40.50
2019-02-27T05:42:27.430Z,40.50
2019-02-27T05:44:56.756Z,40.50
2019-02-27T05:47:25.406Z,40.60
2019-02-27T05:49:53.897Z,40.50
2019-02-27T05:52:22.374Z,40.60
2019-02-27T05:54:50.948Z,40.40
2019-02-27T05:57:21.021Z,40.50
2019-02-27T05:59:49.543Z,40.50
2019-02-27T06:02:18.032Z,40.50
2019-02-27T06:04:46.640Z,40.60
2019-02-27T06:07:18.648Z,40.60
2019-02-27T06:09:45.333Z,40.60
2019-02-27T06:12:13.979Z,40.60
2019-02-27T06:14:42.460Z,40.60
2019-02-27T06:17:12.794Z,40.70
2019-02-27T06:19:41.339Z,40.70
2019-02-27T06:22:10.026Z,40.70
2019-02-27T06:24:38.714Z,40.70
2019-02-27T06:27:07.336Z,40.80
2019-02-27T06:29:35.938Z,40.80
2019-02-27T06:32:04.459Z,41.50
2019-02-27T06:34:33.005Z,40.90
2019-02-27T06:37:01.513Z,40.90
2019-02-27T06:39:34.104Z,40.90
2019-02-27T06:42:00.185Z,40.90
2019-02-27T06:44:28.772Z,41.00
2019-02-27T06:46:57.310Z,41.00
2019-02-27T06:49:26.377Z,41.00
2019-02-27T06:51:54.846Z,41.00
2019-02-27T06:54:23.430Z,41.00
2019-02-27T06:56:51.907Z,41.00
2019-02-27T06:59:24.843Z,41.00
2019-02-27T07:01:50.737Z,41.00
2019-02-27T07:04:19.385Z,41.00
2019-02-27T07:06:47.953Z,41.00
2019-02-27T07:09:16.502Z,41.10
2019-02-27T07:11:47.176Z,41.20
2019-02-27T07:14:15.292Z,41.20
2019-02-27T07:16:43.960Z,41.20
2019-02-27T07:19:13.229Z,41.20
2019-02-27T07:21:42.592Z,41.90
2019-02-27T07:24:11.160Z,41.20
2019-02-27T07:26:39.709Z,41.20
2019-02-27T07:29:08.325Z,41.80
2019-02-27T07:31:37.001Z,41.20
2019-02-27T07:34:05.487Z,41.20
2019-02-27T07:36:36.018Z,41.20
2019-02-27T07:39:05.412Z,41.20
2019-02-27T07:41:33.974Z,41.20
2019-02-27T07:44:02.516Z,41.20
2019-02-27T07:46:31.096Z,41.10
2019-02-27T07:49:01.471Z,41.20
2019-02-27T07:51:29.846Z,41.10
2019-02-27T07:53:58.488Z,41.10
2019-02-27T07:56:27.038Z,41.20
2019-02-27T07:58:55.533Z,41.00
2019-02-27T08:04:22.963Z,41.10
2019-02-27T08:06:51.793Z,41.10
2019-02-27T08:09:20.341Z,41.10
2019-02-27T08:11:49.414Z,41.10
2019-02-27T08:14:17.896Z,41.10
2019-02-27T08:16:47.991Z,41.10
2019-02-27T08:19:16.928Z,41.10
2019-02-27T08:21:45.434Z,41.10
2019-02-27T08:24:14.484Z,41.10
2019-02-27T08:26:43.352Z,41.10
2019-02-27T08:29:11.815Z,41.10
2019-02-27T08:31:40.329Z,41.10
2019-02-27T08:34:08.891Z,41.20
2019-02-27T08:36:37.505Z,41.70
2019-02-27T08:39:06.148Z,41.60
2019-02-27T08:41:34.876Z,41.50
2019-02-27T08:44:03.431Z,41.50
2019-02-27T08:46:34.019Z,41.40
2019-02-27T08:49:02.032Z,41.40
2019-02-27T08:51:30.601Z,41.30
2019-02-27T08:53:59.858Z,41.80
2019-02-27T08:56:30.034Z,41.40
2019-02-27T08:58:58.818Z,41.30
2019-02-27T09:01:27.418Z,41.30
2019-02-27T09:03:55.917Z,41.90
2019-02-27T09:18:47.714Z,40.00
2019-02-27T09:21:17.244Z,40.50
2019-02-27T09:23:46.027Z,40.50
2019-02-27T09:26:14.625Z,40.70
2019-02-27T09:28:44.481Z,40.70
2019-02-27T09:31:13.337Z,40.70
2019-02-27T09:33:41.876Z,40.90
2019-02-27T18:19:31.758Z,40.80
2019-02-27T18:22:00.256Z,39.70
2019-02-27T18:24:33.315Z,39.40
2019-02-27T18:26:59.047Z,39.30
2019-02-27T18:29:27.584Z,38.50
2019-02-27T18:31:58.720Z,39.80
2019-02-27T18:34:26.235Z,38.90
2019-02-27T18:36:54.750Z,38.70
2019-02-27T18:39:23.220Z,38.50
2019-02-27T18:41:51.716Z,37.80
2019-02-27T18:44:20.309Z,38.40
2019-02-27T18:46:48.964Z,38.70
2019-02-27T18:49:18.517Z,38.60
2019-02-27T18:51:47.783Z,38.00
2019-02-27T18:54:16.378Z,37.80
2019-02-27T18:56:44.930Z,37.80
2019-02-27T18:59:13.463Z,37.80
2019-02-27T19:01:45.202Z,37.70
2019-02-27T19:04:12.172Z,37.60
2019-02-27T19:06:43.150Z,37.60
2019-02-27T19:09:10.825Z,37.40
2019-02-27T19:11:39.301Z,37.30
2019-02-27T19:14:07.824Z,37.20
2019-02-27T19:16:36.300Z,37.30
2019-02-27T19:19:04.852Z,37.10
2019-02-27T19:21:33.624Z,37.10
2019-02-27T19:24:02.346Z,37.10
2019-02-27T19:26:30.806Z,36.60
2019-02-27T19:29:00.199Z,36.40
2019-02-27T19:31:28.978Z,36.40
2019-02-27T19:33:57.469Z,36.40
2019-02-27T19:36:30.673Z,36.50
2019-02-27T19:38:59.217Z,36.60
2019-02-27T19:41:27.995Z,36.60
2019-02-27T19:43:56.688Z,36.80
2019-02-27T19:46:25.575Z,36.90
2019-02-27T19:48:55.886Z,37.00
2019-02-27T19:51:24.378Z,37.10
2019-02-27T19:53:53.190Z,37.40
2019-02-27T19:56:21.746Z,37.40
2019-02-27T19:58:51.078Z,37.50
2019-02-27T20:01:20.784Z,37.70
2019-02-27T20:03:49.468Z,37.80
2019-02-27T20:06:21.401Z,37.90
2019-02-27T20:08:49.887Z,38.30
2019-02-27T20:11:18.481Z,38.40
2019-02-27T20:13:46.961Z,38.30
2019-02-27T20:16:17.759Z,38.70
2019-02-27T20:18:54.519Z,38.70
2019-02-27T20:21:16.183Z,38.60
2019-02-27T20:23:44.717Z,38.60
2019-02-27T20:26:14.215Z,38.80
2019-02-27T20:28:43.144Z,38.70
2019-02-27T20:31:11.658Z,38.80
2019-02-27T20:33:40.166Z,38.90
2019-02-27T20:36:08.660Z,38.90
2019-02-27T20:38:37.279Z,38.90
2019-02-27T20:41:06.744Z,39.00
2019-02-27T20:43:35.585Z,39.10
2019-02-27T20:46:04.117Z,39.00
2019-02-27T20:48:35.722Z,39.10
2019-02-27T20:51:06.709Z,39.10
2019-02-27T20:53:37.341Z,39.20
2019-02-27T20:56:05.879Z,39.30
2019-02-27T20:58:34.346Z,39.20
2019-02-27T21:01:03.311Z,39.20
2019-02-27T21:03:31.776Z,39.20
2019-02-27T21:06:00.807Z,39.20
2019-02-27T21:08:29.365Z,39.20
2019-02-27T21:10:57.930Z,39.70
2019-02-27T21:13:26.394Z,39.30
2019-02-27T21:15:54.946Z,39.30
2019-02-27T21:18:23.410Z,39.30
2019-02-27T21:20:51.982Z,39.30
2019-02-27T21:23:20.456Z,39.40
2019-02-27T21:25:49.806Z,39.40
2019-02-27T21:28:21.304Z,39.40
2019-02-27T21:30:51.780Z,39.40
2019-02-27T21:33:19.044Z,39.40
2019-02-27T21:35:47.508Z,39.40
2019-02-27T21:38:16.683Z,39.40
2019-02-27T21:40:45.342Z,39.40
2019-02-27T21:43:13.838Z,39.50
2019-02-27T21:45:42.587Z,39.50
2019-02-27T21:48:11.073Z,39.50
2019-02-27T21:50:40.547Z,39.50
2019-02-27T21:53:09.201Z,39.50
2019-02-27T21:55:37.680Z,39.50
2019-02-27T21:58:06.217Z,39.60
2019-02-27T22:00:35.171Z,39.50
2019-02-27T22:03:04.965Z,39.50
2019-02-27T22:05:42.506Z,39.50
2019-02-27T22:08:05.486Z,39.60
2019-02-27T22:10:34.386Z,39.60
2019-02-27T22:13:02.944Z,39.60
2019-02-27T22:15:31.609Z,39.60
2019-02-27T22:18:00.229Z,39.60
2019-02-27T22:20:28.710Z,39.60
2019-02-27T22:22:57.224Z,39.60
2019-02-27T22:25:29.845Z,38.00
2019-02-27T22:27:58.277Z,36.90
2019-02-27T22:30:26.074Z,35.90
2019-02-27T22:32:55.058Z,35.40
2019-02-27T22:35:23.712Z,34.70
2019-02-27T22:37:52.786Z,34.00
2019-02-27T22:40:27.440Z,33.70
2019-02-27T22:42:55.898Z,34.00
2019-02-27T22:45:24.592Z,33.20
2019-02-27T22:47:53.999Z,32.90
2019-02-27T22:50:23.238Z,34.00
2019-02-27T22:52:55.342Z,33.80
2019-02-27T22:55:23.890Z,34.30
2019-02-27T22:57:54.841Z,34.60
2019-02-27T23:00:51.245Z,35.00
2019-02-27T23:03:44.546Z,35.10
2019-02-27T23:06:13.139Z,35.40
2019-02-27T23:08:41.651Z,35.40
2019-02-27T23:11:10.105Z,35.50
2019-02-27T23:13:38.606Z,36.30
2019-02-27T23:16:07.528Z,35.70
2019-02-27T23:18:37.429Z,35.80
2019-02-27T23:21:06.281Z,36.00
2019-02-27T23:23:36.737Z,36.10
2019-02-27T23:26:04.858Z,36.20
2019-02-27T23:28:34.827Z,36.40
2019-02-27T23:31:03.581Z,36.50
2019-02-27T23:33:35.839Z,36.60
2019-02-27T23:36:02.746Z,36.80
2019-02-27T23:38:31.204Z,36.80
2019-02-27T23:41:02.410Z,36.90
2019-02-27T23:43:33.920Z,37.10
2019-02-27T23:46:01.243Z,37.20
2019-02-27T23:48:29.694Z,37.60
2019-02-27T23:50:58.199Z,38.00
2019-02-27T23:53:27.168Z,38.20
2019-02-27T23:55:59.763Z,38.50
2019-02-27T23:58:29.430Z,38.90
